sensor_id;sensor_type;location;lat;lon;timestamp;P1;durP1;ratioP1;P2;durP2;ratioP2
61407;SDS011;47274;43.054;25.146;2022-10-16T00:01:27;17.03;;;8.00;;
61407;SDS011;47274;43.054;25.146;2022-10-16T00:03:54;20.27;;;9.20;;
61407;SDS011;47274;43.054;25.146;2022-10-16T00:06:22;21.97;;;9.73;;
61407;SDS011;47274;43.054;25.146;2022-10-16T00:08:49;17.93;;;8.57;;
61407;SDS011;47274;43.054;25.146;2022-10-16T00:11:23;18.30;;;8.83;;
61407;SDS011;47274;43.054;25.146;2022-10-16T00:13:58;20.97;;;8.87;;
61407;SDS011;47274;43.054;25.146;2022-10-16T00:16:25;21.70;;;9.50;;
61407;SDS011;47274;43.054;25.146;2022-10-16T00:18:52;21.20;;;9.57;;
61407;SDS011;47274;43.054;25.146;2022-10-16T00:21:22;20.23;;;8.80;;
61407;SDS011;47274;43.054;25.146;2022-10-16T00:23:51;19.08;;;9.02;;
61407;SDS011;47274;43.054;25.146;2022-10-16T00:26:19;19.13;;;8.50;;
61407;SDS011;47274;43.054;25.146;2022-10-16T00:28:46;17.00;;;8.27;;
61407;SDS011;47274;43.054;25.146;2022-10-16T00:31:13;19.40;;;8.90;;
61407;SDS011;47274;43.054;25.146;2022-10-16T00:33:39;19.60;;;8.50;;
61407;SDS011;47274;43.054;25.146;2022-10-16T00:36:06;17.77;;;8.63;;
61407;SDS011;47274;43.054;25.146;2022-10-16T00:38:33;19.27;;;8.47;;
61407;SDS011;47274;43.054;25.146;2022-10-16T00:40:59;20.57;;;8.73;;
61407;SDS011;47274;43.054;25.146;2022-10-16T00:46:26;20.40;;;8.73;;
61407;SDS011;47274;43.054;25.146;2022-10-16T00:49:11;19.73;;;8.47;;
61407;SDS011;47274;43.054;25.146;2022-10-16T00:51:41;20.87;;;9.00;;
61407;SDS011;47274;43.054;25.146;2022-10-16T00:54:12;18.73;;;9.40;;
61407;SDS011;47274;43.054;25.146;2022-10-16T00:56:41;18.40;;;8.77;;
61407;SDS011;47274;43.054;25.146;2022-10-16T00:59:27;16.87;;;8.27;;
61407;SDS011;47274;43.054;25.146;2022-10-16T01:02:01;20.90;;;9.15;;
61407;SDS011;47274;43.054;25.146;2022-10-16T01:04:30;18.97;;;8.67;;
61407;SDS011;47274;43.054;25.146;2022-10-16T01:07:35;21.13;;;9.57;;
61407;SDS011;47274;43.054;25.146;2022-10-16T01:12:50;19.47;;;9.73;;
61407;SDS011;47274;43.054;25.146;2022-10-16T01:15:20;19.20;;;9.30;;
61407;SDS011;47274;43.054;25.146;2022-10-16T01:17:59;22.93;;;10.43;;
61407;SDS011;47274;43.054;25.146;2022-10-16T01:21:02;21.43;;;10.87;;
61407;SDS011;47274;43.054;25.146;2022-10-16T01:35:13;20.80;;;10.53;;
61407;SDS011;47274;43.054;25.146;2022-10-16T01:40:29;19.93;;;10.07;;
61407;SDS011;47274;43.054;25.146;2022-10-16T01:42:59;18.93;;;9.20;;
61407;SDS011;47274;43.054;25.146;2022-10-16T01:45:28;18.63;;;8.73;;
61407;SDS011;47274;43.054;25.146;2022-10-16T01:47:57;18.83;;;8.80;;
61407;SDS011;47274;43.054;25.146;2022-10-16T01:50:25;19.40;;;9.60;;
61407;SDS011;47274;43.054;25.146;2022-10-16T01:52:52;20.40;;;9.27;;
61407;SDS011;47274;43.054;25.146;2022-10-16T01:55:22;21.97;;;9.57;;
61407;SDS011;47274;43.054;25.146;2022-10-16T01:57:55;19.70;;;9.30;;
61407;SDS011;47274;43.054;25.146;2022-10-16T02:00:23;20.40;;;9.87;;
61407;SDS011;47274;43.054;25.146;2022-10-16T02:02:50;23.73;;;10.13;;
61407;SDS011;47274;43.054;25.146;2022-10-16T02:08:16;18.80;;;9.40;;
61407;SDS011;47274;43.054;25.146;2022-10-16T02:10:43;21.30;;;10.50;;
61407;SDS011;47274;43.054;25.146;2022-10-16T02:13:10;20.83;;;9.97;;
61407;SDS011;47274;43.054;25.146;2022-10-16T02:15:42;22.00;;;10.37;;
61407;SDS011;47274;43.054;25.146;2022-10-16T02:18:08;22.03;;;10.13;;
61407;SDS011;47274;43.054;25.146;2022-10-16T02:21:19;21.10;;;10.33;;
61407;SDS011;47274;43.054;25.146;2022-10-16T02:23:37;19.60;;;9.70;;
61407;SDS011;47274;43.054;25.146;2022-10-16T02:26:24;21.08;;;10.23;;
61407;SDS011;47274;43.054;25.146;2022-10-16T02:29:07;19.97;;;10.20;;
61407;SDS011;47274;43.054;25.146;2022-10-16T02:31:38;20.90;;;10.17;;
61407;SDS011;47274;43.054;25.146;2022-10-16T02:34:08;23.20;;;10.38;;
61407;SDS011;47274;43.054;25.146;2022-10-16T02:36:37;22.27;;;10.60;;
61407;SDS011;47274;43.054;25.146;2022-10-16T02:39:06;20.50;;;10.50;;
61407;SDS011;47274;43.054;25.146;2022-10-16T02:41:33;21.83;;;10.43;;
61407;SDS011;47274;43.054;25.146;2022-10-16T02:43:59;21.17;;;10.40;;
61407;SDS011;47274;43.054;25.146;2022-10-16T02:46:25;21.90;;;10.43;;
61407;SDS011;47274;43.054;25.146;2022-10-16T02:48:50;20.57;;;9.97;;
61407;SDS011;47274;43.054;25.146;2022-10-16T02:51:16;21.07;;;10.80;;
61407;SDS011;47274;43.054;25.146;2022-10-16T02:53:42;21.20;;;9.80;;
61407;SDS011;47274;43.054;25.146;2022-10-16T02:56:08;20.23;;;9.40;;
61407;SDS011;47274;43.054;25.146;2022-10-16T02:58:34;21.37;;;9.30;;
61407;SDS011;47274;43.054;25.146;2022-10-16T03:01:00;18.20;;;8.93;;
61407;SDS011;47274;43.054;25.146;2022-10-16T03:03:26;18.93;;;8.73;;
61407;SDS011;47274;43.054;25.146;2022-10-16T03:05:52;19.40;;;9.20;;
61407;SDS011;47274;43.054;25.146;2022-10-16T03:08:18;19.10;;;9.90;;
61407;SDS011;47274;43.054;25.146;2022-10-16T03:10:49;19.57;;;8.90;;
61407;SDS011;47274;43.054;25.146;2022-10-16T03:13:15;19.73;;;9.50;;
61407;SDS011;47274;43.054;25.146;2022-10-16T03:15:41;19.10;;;9.43;;
61407;SDS011;47274;43.054;25.146;2022-10-16T03:18:07;18.10;;;9.43;;
61407;SDS011;47274;43.054;25.146;2022-10-16T03:20:33;18.23;;;9.30;;
61407;SDS011;47274;43.054;25.146;2022-10-16T03:22:59;22.30;;;9.10;;
61407;SDS011;47274;43.054;25.146;2022-10-16T03:25:25;20.83;;;10.07;;
61407;SDS011;47274;43.054;25.146;2022-10-16T03:27:50;19.27;;;9.57;;
61407;SDS011;47274;43.054;25.146;2022-10-16T03:30:17;18.37;;;9.60;;
61407;SDS011;47274;43.054;25.146;2022-10-16T03:32:43;20.17;;;9.87;;
61407;SDS011;47274;43.054;25.146;2022-10-16T03:35:10;21.40;;;10.77;;
61407;SDS011;47274;43.054;25.146;2022-10-16T03:37:36;23.40;;;10.17;;
61407;SDS011;47274;43.054;25.146;2022-10-16T03:40:02;21.40;;;9.50;;
61407;SDS011;47274;43.054;25.146;2022-10-16T03:42:29;18.73;;;9.43;;
61407;SDS011;47274;43.054;25.146;2022-10-16T03:44:55;20.33;;;9.63;;
61407;SDS011;47274;43.054;25.146;2022-10-16T03:47:21;20.10;;;9.20;;
61407;SDS011;47274;43.054;25.146;2022-10-16T03:49:49;21.47;;;8.63;;
61407;SDS011;47274;43.054;25.146;2022-10-16T03:52:15;18.13;;;8.57;;
61407;SDS011;47274;43.054;25.146;2022-10-16T03:54:41;17.70;;;8.80;;
61407;SDS011;47274;43.054;25.146;2022-10-16T03:57:08;19.67;;;8.63;;
61407;SDS011;47274;43.054;25.146;2022-10-16T03:59:34;17.87;;;8.30;;
61407;SDS011;47274;43.054;25.146;2022-10-16T04:02:00;17.80;;;8.00;;
61407;SDS011;47274;43.054;25.146;2022-10-16T04:04:26;16.90;;;7.90;;
61407;SDS011;47274;43.054;25.146;2022-10-16T04:06:52;19.43;;;8.40;;
61407;SDS011;47274;43.054;25.146;2022-10-16T04:09:17;18.57;;;8.20;;
61407;SDS011;47274;43.054;25.146;2022-10-16T04:11:43;18.77;;;8.67;;
61407;SDS011;47274;43.054;25.146;2022-10-16T04:14:09;16.83;;;7.70;;
61407;SDS011;47274;43.054;25.146;2022-10-16T04:16:36;20.17;;;8.73;;
61407;SDS011;47274;43.054;25.146;2022-10-16T04:19:02;18.20;;;8.80;;
61407;SDS011;47274;43.054;25.146;2022-10-16T04:21:28;19.60;;;9.03;;
61407;SDS011;47274;43.054;25.146;2022-10-16T04:23:54;18.87;;;9.43;;
61407;SDS011;47274;43.054;25.146;2022-10-16T04:26:20;17.40;;;8.73;;
61407;SDS011;47274;43.054;25.146;2022-10-16T04:28:45;19.70;;;8.60;;
61407;SDS011;47274;43.054;25.146;2022-10-16T04:31:12;17.67;;;8.03;;
61407;SDS011;47274;43.054;25.146;2022-10-16T04:33:38;18.07;;;8.30;;
61407;SDS011;47274;43.054;25.146;2022-10-16T04:36:04;19.03;;;8.50;;
61407;SDS011;47274;43.054;25.146;2022-10-16T04:38:30;16.90;;;8.03;;
61407;SDS011;47274;43.054;25.146;2022-10-16T04:40:56;20.37;;;8.53;;
61407;SDS011;47274;43.054;25.146;2022-10-16T04:43:23;18.50;;;8.47;;
61407;SDS011;47274;43.054;25.146;2022-10-16T04:45:49;20.60;;;9.03;;
61407;SDS011;47274;43.054;25.146;2022-10-16T04:48:18;19.60;;;8.87;;
61407;SDS011;47274;43.054;25.146;2022-10-16T04:50:44;18.47;;;9.10;;
61407;SDS011;47274;43.054;25.146;2022-10-16T04:53:11;18.97;;;8.70;;
61407;SDS011;47274;43.054;25.146;2022-10-16T04:55:37;19.00;;;9.20;;
61407;SDS011;47274;43.054;25.146;2022-10-16T04:58:03;19.77;;;9.60;;
61407;SDS011;47274;43.054;25.146;2022-10-16T05:00:30;22.10;;;10.03;;
61407;SDS011;47274;43.054;25.146;2022-10-16T05:02:55;20.33;;;9.87;;
61407;SDS011;47274;43.054;25.146;2022-10-16T05:05:22;18.63;;;9.43;;
61407;SDS011;47274;43.054;25.146;2022-10-16T05:07:48;19.43;;;9.53;;
61407;SDS011;47274;43.054;25.146;2022-10-16T05:10:15;19.77;;;10.03;;
61407;SDS011;47274;43.054;25.146;2022-10-16T05:12:41;19.73;;;10.40;;
61407;SDS011;47274;43.054;25.146;2022-10-16T05:15:10;21.67;;;9.93;;
61407;SDS011;47274;43.054;25.146;2022-10-16T05:17:36;20.60;;;10.00;;
61407;SDS011;47274;43.054;25.146;2022-10-16T05:20:02;21.57;;;10.07;;
61407;SDS011;47274;43.054;25.146;2022-10-16T05:22:28;18.80;;;9.07;;
61407;SDS011;47274;43.054;25.146;2022-10-16T05:24:54;19.23;;;9.40;;
61407;SDS011;47274;43.054;25.146;2022-10-16T05:27:20;17.73;;;8.57;;
61407;SDS011;47274;43.054;25.146;2022-10-16T05:29:47;20.03;;;8.77;;
61407;SDS011;47274;43.054;25.146;2022-10-16T05:32:17;17.57;;;8.57;;
61407;SDS011;47274;43.054;25.146;2022-10-16T05:34:44;18.33;;;8.33;;
61407;SDS011;47274;43.054;25.146;2022-10-16T05:37:11;17.70;;;8.47;;
61407;SDS011;47274;43.054;25.146;2022-10-16T05:39:39;17.27;;;8.10;;
61407;SDS011;47274;43.054;25.146;2022-10-16T05:42:05;17.67;;;7.72;;
61407;SDS011;47274;43.054;25.146;2022-10-16T05:44:31;17.33;;;7.90;;
61407;SDS011;47274;43.054;25.146;2022-10-16T05:46:58;18.50;;;8.02;;
61407;SDS011;47274;43.054;25.146;2022-10-16T05:49:24;15.07;;;6.93;;
61407;SDS011;47274;43.054;25.146;2022-10-16T05:51:50;15.63;;;7.22;;
61407;SDS011;47274;43.054;25.146;2022-10-16T05:54:16;14.85;;;7.25;;
61407;SDS011;47274;43.054;25.146;2022-10-16T05:56:42;15.63;;;7.20;;
61407;SDS011;47274;43.054;25.146;2022-10-16T05:59:08;14.18;;;6.88;;
61407;SDS011;47274;43.054;25.146;2022-10-16T06:01:35;14.13;;;6.50;;
61407;SDS011;47274;43.054;25.146;2022-10-16T06:04:01;14.05;;;6.60;;
61407;SDS011;47274;43.054;25.146;2022-10-16T06:06:28;13.90;;;6.45;;
61407;SDS011;47274;43.054;25.146;2022-10-16T06:08:55;16.40;;;7.03;;
61407;SDS011;47274;43.054;25.146;2022-10-16T06:11:26;15.48;;;6.63;;
61407;SDS011;47274;43.054;25.146;2022-10-16T06:13:54;14.30;;;6.78;;
61407;SDS011;47274;43.054;25.146;2022-10-16T06:16:22;18.50;;;7.00;;
61407;SDS011;47274;43.054;25.146;2022-10-16T06:18:52;11.98;;;5.93;;
61407;SDS011;47274;43.054;25.146;2022-10-16T06:21:20;11.57;;;6.20;;
61407;SDS011;47274;43.054;25.146;2022-10-16T06:23:50;14.77;;;6.40;;
61407;SDS011;47274;43.054;25.146;2022-10-16T06:26:19;13.65;;;6.40;;
61407;SDS011;47274;43.054;25.146;2022-10-16T06:28:47;12.68;;;6.07;;
61407;SDS011;47274;43.054;25.146;2022-10-16T06:31:14;12.48;;;5.80;;
61407;SDS011;47274;43.054;25.146;2022-10-16T06:33:41;11.90;;;5.90;;
61407;SDS011;47274;43.054;25.146;2022-10-16T06:36:11;12.30;;;5.78;;
61407;SDS011;47274;43.054;25.146;2022-10-16T06:41:08;10.57;;;5.72;;
61407;SDS011;47274;43.054;25.146;2022-10-16T06:43:37;14.13;;;5.28;;
61407;SDS011;47274;43.054;25.146;2022-10-16T06:46:03;10.35;;;5.40;;
61407;SDS011;47274;43.054;25.146;2022-10-16T06:48:30;11.38;;;5.55;;
61407;SDS011;47274;43.054;25.146;2022-10-16T06:53:22;10.88;;;5.22;;
61407;SDS011;47274;43.054;25.146;2022-10-16T06:55:49;12.00;;;5.15;;
61407;SDS011;47274;43.054;25.146;2022-10-16T06:58:15;12.35;;;5.63;;
61407;SDS011;47274;43.054;25.146;2022-10-16T07:00:43;14.13;;;6.10;;
61407;SDS011;47274;43.054;25.146;2022-10-16T07:03:09;12.23;;;5.80;;
61407;SDS011;47274;43.054;25.146;2022-10-16T07:05:37;11.80;;;5.30;;
61407;SDS011;47274;43.054;25.146;2022-10-16T07:08:05;12.00;;;5.70;;
61407;SDS011;47274;43.054;25.146;2022-10-16T07:10:31;12.80;;;6.25;;
61407;SDS011;47274;43.054;25.146;2022-10-16T07:12:57;10.10;;;5.65;;
61407;SDS011;47274;43.054;25.146;2022-10-16T07:15:24;10.70;;;5.20;;
61407;SDS011;47274;43.054;25.146;2022-10-16T07:17:50;12.65;;;5.43;;
61407;SDS011;47274;43.054;25.146;2022-10-16T07:20:16;13.02;;;5.40;;
61407;SDS011;47274;43.054;25.146;2022-10-16T07:22:42;11.10;;;5.20;;
61407;SDS011;47274;43.054;25.146;2022-10-16T07:25:08;9.25;;;5.10;;
61407;SDS011;47274;43.054;25.146;2022-10-16T07:27:34;10.70;;;5.32;;
61407;SDS011;47274;43.054;25.146;2022-10-16T07:30:02;15.05;;;5.40;;
61407;SDS011;47274;43.054;25.146;2022-10-16T07:32:29;12.45;;;5.28;;
61407;SDS011;47274;43.054;25.146;2022-10-16T07:34:56;11.63;;;5.00;;
61407;SDS011;47274;43.054;25.146;2022-10-16T07:37:22;11.82;;;5.00;;
61407;SDS011;47274;43.054;25.146;2022-10-16T07:39:48;8.95;;;4.90;;
61407;SDS011;47274;43.054;25.146;2022-10-16T07:42:14;10.30;;;4.93;;
61407;SDS011;47274;43.054;25.146;2022-10-16T07:44:41;7.35;;;4.65;;
61407;SDS011;47274;43.054;25.146;2022-10-16T07:47:07;8.77;;;4.88;;
61407;SDS011;47274;43.054;25.146;2022-10-16T07:49:32;7.82;;;4.88;;
61407;SDS011;47274;43.054;25.146;2022-10-16T07:51:58;10.27;;;5.15;;
61407;SDS011;47274;43.054;25.146;2022-10-16T07:54:25;10.93;;;5.10;;
61407;SDS011;47274;43.054;25.146;2022-10-16T07:56:51;10.88;;;5.50;;
61407;SDS011;47274;43.054;25.146;2022-10-16T07:59:17;8.20;;;4.80;;
61407;SDS011;47274;43.054;25.146;2022-10-16T08:01:43;9.55;;;4.72;;
61407;SDS011;47274;43.054;25.146;2022-10-16T08:04:10;11.68;;;5.13;;
61407;SDS011;47274;43.054;25.146;2022-10-16T08:06:38;11.52;;;5.32;;
61407;SDS011;47274;43.054;25.146;2022-10-16T08:09:05;9.70;;;4.97;;
61407;SDS011;47274;43.054;25.146;2022-10-16T08:11:35;7.88;;;4.90;;
61407;SDS011;47274;43.054;25.146;2022-10-16T08:14:01;7.07;;;4.35;;
61407;SDS011;47274;43.054;25.146;2022-10-16T08:16:29;9.27;;;4.60;;
61407;SDS011;47274;43.054;25.146;2022-10-16T08:18:55;8.77;;;4.47;;
61407;SDS011;47274;43.054;25.146;2022-10-16T08:21:24;9.85;;;4.80;;
61407;SDS011;47274;43.054;25.146;2022-10-16T08:23:50;10.13;;;4.50;;
61407;SDS011;47274;43.054;25.146;2022-10-16T08:26:16;11.55;;;4.40;;
61407;SDS011;47274;43.054;25.146;2022-10-16T08:28:42;8.20;;;4.20;;
61407;SDS011;47274;43.054;25.146;2022-10-16T08:31:09;11.45;;;5.03;;
61407;SDS011;47274;43.054;25.146;2022-10-16T08:33:40;7.57;;;4.17;;
61407;SDS011;47274;43.054;25.146;2022-10-16T08:36:09;12.38;;;5.00;;
61407;SDS011;47274;43.054;25.146;2022-10-16T08:38:36;8.10;;;4.15;;
61407;SDS011;47274;43.054;25.146;2022-10-16T08:46:39;13.02;;;5.05;;
61407;SDS011;47274;43.054;25.146;2022-10-16T08:49:35;12.35;;;5.63;;
61407;SDS011;47274;43.054;25.146;2022-10-16T08:52:02;10.68;;;4.78;;
61407;SDS011;47274;43.054;25.146;2022-10-16T08:54:34;11.63;;;5.05;;
61407;SDS011;47274;43.054;25.146;2022-10-16T08:57:14;11.55;;;5.80;;
61407;SDS011;47274;43.054;25.146;2022-10-16T08:59:46;12.52;;;5.90;;
61407;SDS011;47274;43.054;25.146;2022-10-16T09:02:35;13.10;;;6.40;;
61407;SDS011;47274;43.054;25.146;2022-10-16T09:07:48;13.65;;;6.20;;
61407;SDS011;47274;43.054;25.146;2022-10-16T09:21:30;17.40;;;7.00;;
61407;SDS011;47274;43.054;25.146;2022-10-16T09:26:55;13.85;;;5.90;;
61407;SDS011;47274;43.054;25.146;2022-10-16T09:29:21;11.70;;;5.82;;
61407;SDS011;47274;43.054;25.146;2022-10-16T09:31:48;13.95;;;6.25;;
61407;SDS011;47274;43.054;25.146;2022-10-16T09:34:21;15.02;;;6.13;;
61407;SDS011;47274;43.054;25.146;2022-10-16T09:36:59;11.57;;;5.85;;
61407;SDS011;47274;43.054;25.146;2022-10-16T09:39:29;15.05;;;6.47;;
61407;SDS011;47274;43.054;25.146;2022-10-16T09:41:55;14.25;;;6.75;;
61407;SDS011;47274;43.054;25.146;2022-10-16T09:47:05;13.35;;;6.35;;
61407;SDS011;47274;43.054;25.146;2022-10-16T09:49:39;15.70;;;6.60;;
61407;SDS011;47274;43.054;25.146;2022-10-16T09:52:16;19.08;;;9.63;;
61407;SDS011;47274;43.054;25.146;2022-10-16T09:54:52;28.83;;;19.08;;
61407;SDS011;47274;43.054;25.146;2022-10-16T09:57:21;80.63;;;58.33;;
61407;SDS011;47274;43.054;25.146;2022-10-16T09:59:49;26.63;;;14.95;;
61407;SDS011;47274;43.054;25.146;2022-10-16T10:02:23;20.43;;;10.80;;
61407;SDS011;47274;43.054;25.146;2022-10-16T10:04:59;20.75;;;10.65;;
61407;SDS011;47274;43.054;25.146;2022-10-16T10:07:27;54.05;;;27.65;;
61407;SDS011;47274;43.054;25.146;2022-10-16T10:09:59;23.92;;;12.18;;
61407;SDS011;47274;43.054;25.146;2022-10-16T10:12:28;21.00;;;10.25;;
61407;SDS011;47274;43.054;25.146;2022-10-16T10:15:07;20.42;;;9.75;;
61407;SDS011;47274;43.054;25.146;2022-10-16T10:20:58;18.98;;;9.48;;
61407;SDS011;47274;43.054;25.146;2022-10-16T10:23:26;19.67;;;9.13;;
61407;SDS011;47274;43.054;25.146;2022-10-16T10:26:00;18.73;;;8.55;;
61407;SDS011;47274;43.054;25.146;2022-10-16T10:31:30;19.33;;;8.85;;
61407;SDS011;47274;43.054;25.146;2022-10-16T10:37:31;19.05;;;8.70;;
61407;SDS011;47274;43.054;25.146;2022-10-16T10:40:39;18.52;;;7.85;;
61407;SDS011;47274;43.054;25.146;2022-10-16T10:43:21;19.33;;;9.05;;
61407;SDS011;47274;43.054;25.146;2022-10-16T10:46:41;16.15;;;7.57;;
61407;SDS011;47274;43.054;25.146;2022-10-16T11:00:22;15.35;;;7.07;;
61407;SDS011;47274;43.054;25.146;2022-10-16T11:10:27;13.05;;;6.10;;
61407;SDS011;47274;43.054;25.146;2022-10-16T11:13:16;12.90;;;6.60;;
61407;SDS011;47274;43.054;25.146;2022-10-16T11:15:49;16.45;;;7.45;;
61407;SDS011;47274;43.054;25.146;2022-10-16T11:18:24;12.80;;;5.90;;
61407;SDS011;47274;43.054;25.146;2022-10-16T11:21:02;14.45;;;6.25;;
61407;SDS011;47274;43.054;25.146;2022-10-16T11:23:35;12.38;;;6.00;;
61407;SDS011;47274;43.054;25.146;2022-10-16T11:26:04;15.32;;;5.57;;
61407;SDS011;47274;43.054;25.146;2022-10-16T11:28:59;13.65;;;6.28;;
61407;SDS011;47274;43.054;25.146;2022-10-16T11:31:39;17.88;;;7.05;;
61407;SDS011;47274;43.054;25.146;2022-10-16T11:34:12;14.55;;;6.03;;
61407;SDS011;47274;43.054;25.146;2022-10-16T11:37:14;12.48;;;5.50;;
61407;SDS011;47274;43.054;25.146;2022-10-16T11:39:45;11.63;;;5.40;;
61407;SDS011;47274;43.054;25.146;2022-10-16T11:42:22;14.15;;;5.53;;
61407;SDS011;47274;43.054;25.146;2022-10-16T11:47:35;10.73;;;5.00;;
61407;SDS011;47274;43.054;25.146;2022-10-16T11:55:49;8.77;;;4.20;;
61407;SDS011;47274;43.054;25.146;2022-10-16T12:01:02;9.73;;;4.35;;
61407;SDS011;47274;43.054;25.146;2022-10-16T12:06:23;7.57;;;3.85;;
61407;SDS011;47274;43.054;25.146;2022-10-16T12:09:33;7.68;;;3.90;;
61407;SDS011;47274;43.054;25.146;2022-10-16T12:11:59;13.60;;;4.85;;
61407;SDS011;47274;43.054;25.146;2022-10-16T12:19:56;9.45;;;4.35;;
61407;SDS011;47274;43.054;25.146;2022-10-16T12:22:50;7.45;;;4.07;;
61407;SDS011;47274;43.054;25.146;2022-10-16T12:25:29;10.77;;;3.90;;
61407;SDS011;47274;43.054;25.146;2022-10-16T12:30:40;10.93;;;4.15;;
61407;SDS011;47274;43.054;25.146;2022-10-16T12:33:19;14.30;;;5.50;;
61407;SDS011;47274;43.054;25.146;2022-10-16T12:35:49;10.30;;;4.53;;
61407;SDS011;47274;43.054;25.146;2022-10-16T12:38:18;9.13;;;4.80;;
61407;SDS011;47274;43.054;25.146;2022-10-16T12:40:45;7.90;;;4.10;;
61407;SDS011;47274;43.054;25.146;2022-10-16T12:45:46;9.80;;;4.32;;
61407;SDS011;47274;43.054;25.146;2022-10-16T12:48:21;7.07;;;4.05;;
61407;SDS011;47274;43.054;25.146;2022-10-16T12:50:47;10.23;;;4.45;;
61407;SDS011;47274;43.054;25.146;2022-10-16T12:53:21;7.65;;;3.63;;
61407;SDS011;47274;43.054;25.146;2022-10-16T13:01:19;8.32;;;4.38;;
61407;SDS011;47274;43.054;25.146;2022-10-16T13:06:49;9.45;;;4.10;;
61407;SDS011;47274;43.054;25.146;2022-10-16T13:09:59;10.75;;;4.15;;
61407;SDS011;47274;43.054;25.146;2022-10-16T13:18:22;10.05;;;4.50;;
61407;SDS011;47274;43.054;25.146;2022-10-16T13:23:23;16.63;;;6.72;;
61407;SDS011;47274;43.054;25.146;2022-10-16T13:28:41;13.75;;;4.85;;
61407;SDS011;47274;43.054;25.146;2022-10-16T13:31:12;11.70;;;4.80;;
61407;SDS011;47274;43.054;25.146;2022-10-16T13:33:45;10.93;;;4.72;;
61407;SDS011;47274;43.054;25.146;2022-10-16T13:36:19;10.57;;;4.43;;
61407;SDS011;47274;43.054;25.146;2022-10-16T13:38:49;10.60;;;4.68;;
61407;SDS011;47274;43.054;25.146;2022-10-16T13:41:26;8.82;;;4.55;;
61407;SDS011;47274;43.054;25.146;2022-10-16T13:43:52;14.30;;;4.40;;
61407;SDS011;47274;43.054;25.146;2022-10-16T13:46:22;12.55;;;4.72;;
61407;SDS011;47274;43.054;25.146;2022-10-16T13:49:05;9.77;;;4.35;;
61407;SDS011;47274;43.054;25.146;2022-10-16T13:51:37;9.05;;;4.57;;
61407;SDS011;47274;43.054;25.146;2022-10-16T13:54:04;8.25;;;4.35;;
61407;SDS011;47274;43.054;25.146;2022-10-16T13:56:32;13.63;;;5.95;;
61407;SDS011;47274;43.054;25.146;2022-10-16T13:58:59;17.52;;;5.78;;
61407;SDS011;47274;43.054;25.146;2022-10-16T14:02:00;13.68;;;5.47;;
61407;SDS011;47274;43.054;25.146;2022-10-16T14:04:21;15.73;;;5.75;;
61407;SDS011;47274;43.054;25.146;2022-10-16T14:06:49;10.55;;;4.55;;
61407;SDS011;47274;43.054;25.146;2022-10-16T14:11:49;10.07;;;4.65;;
61407;SDS011;47274;43.054;25.146;2022-10-16T14:14:27;12.30;;;5.15;;
61407;SDS011;47274;43.054;25.146;2022-10-16T14:17:00;14.63;;;5.50;;
61407;SDS011;47274;43.054;25.146;2022-10-16T14:19:28;14.57;;;5.78;;
61407;SDS011;47274;43.054;25.146;2022-10-16T14:21:56;19.33;;;8.27;;
61407;SDS011;47274;43.054;25.146;2022-10-16T14:26:56;16.00;;;6.13;;
61407;SDS011;47274;43.054;25.146;2022-10-16T14:29:24;15.38;;;6.25;;
61407;SDS011;47274;43.054;25.146;2022-10-16T14:31:59;12.88;;;5.57;;
61407;SDS011;47274;43.054;25.146;2022-10-16T14:34:31;11.95;;;4.90;;
61407;SDS011;47274;43.054;25.146;2022-10-16T14:36:58;17.92;;;6.60;;
61407;SDS011;47274;43.054;25.146;2022-10-16T14:39:32;18.63;;;6.35;;
61407;SDS011;47274;43.054;25.146;2022-10-16T14:41:58;22.25;;;9.30;;
61407;SDS011;47274;43.054;25.146;2022-10-16T14:44:33;21.48;;;7.30;;
61407;SDS011;47274;43.054;25.146;2022-10-16T14:47:09;17.52;;;6.32;;
61407;SDS011;47274;43.054;25.146;2022-10-16T14:49:41;15.82;;;5.43;;
61407;SDS011;47274;43.054;25.146;2022-10-16T14:52:08;17.63;;;7.10;;
61407;SDS011;47274;43.054;25.146;2022-10-16T14:54:36;15.18;;;5.93;;
61407;SDS011;47274;43.054;25.146;2022-10-16T14:57:03;14.32;;;4.93;;
61407;SDS011;47274;43.054;25.146;2022-10-16T14:59:39;13.82;;;5.57;;
61407;SDS011;47274;43.054;25.146;2022-10-16T15:02:28;12.75;;;5.13;;
61407;SDS011;47274;43.054;25.146;2022-10-16T15:05:19;10.32;;;4.50;;
61407;SDS011;47274;43.054;25.146;2022-10-16T15:07:50;12.35;;;5.20;;
61407;SDS011;47274;43.054;25.146;2022-10-16T15:10:17;10.25;;;4.95;;
61407;SDS011;47274;43.054;25.146;2022-10-16T15:12:43;11.25;;;4.88;;
61407;SDS011;47274;43.054;25.146;2022-10-16T15:15:15;9.65;;;4.78;;
61407;SDS011;47274;43.054;25.146;2022-10-16T15:17:52;9.82;;;4.65;;
61407;SDS011;47274;43.054;25.146;2022-10-16T15:22:48;16.50;;;5.22;;
61407;SDS011;47274;43.054;25.146;2022-10-16T15:25:33;19.58;;;5.97;;
61407;SDS011;47274;43.054;25.146;2022-10-16T15:28:08;13.00;;;4.95;;
61407;SDS011;47274;43.054;25.146;2022-10-16T15:30:39;14.15;;;5.30;;
61407;SDS011;47274;43.054;25.146;2022-10-16T15:33:08;11.23;;;4.97;;
61407;SDS011;47274;43.054;25.146;2022-10-16T15:35:38;14.25;;;5.22;;
61407;SDS011;47274;43.054;25.146;2022-10-16T15:38:05;9.57;;;4.95;;
61407;SDS011;47274;43.054;25.146;2022-10-16T15:40:31;13.73;;;4.95;;
61407;SDS011;47274;43.054;25.146;2022-10-16T15:42:57;14.73;;;6.18;;
61407;SDS011;47274;43.054;25.146;2022-10-16T15:45:23;14.68;;;6.47;;
61407;SDS011;47274;43.054;25.146;2022-10-16T15:47:49;12.13;;;5.30;;
61407;SDS011;47274;43.054;25.146;2022-10-16T15:50:15;16.77;;;6.32;;
61407;SDS011;47274;43.054;25.146;2022-10-16T15:52:42;15.55;;;5.65;;
61407;SDS011;47274;43.054;25.146;2022-10-16T15:55:08;13.25;;;6.00;;
61407;SDS011;47274;43.054;25.146;2022-10-16T15:57:36;15.10;;;5.97;;
61407;SDS011;47274;43.054;25.146;2022-10-16T16:00:05;18.65;;;8.13;;
61407;SDS011;47274;43.054;25.146;2022-10-16T16:02:37;24.60;;;10.80;;
61407;SDS011;47274;43.054;25.146;2022-10-16T16:07:56;38.50;;;21.58;;
61407;SDS011;47274;43.054;25.146;2022-10-16T16:10:22;23.88;;;11.40;;
61407;SDS011;47274;43.054;25.146;2022-10-16T16:12:48;22.95;;;10.07;;
61407;SDS011;47274;43.054;25.146;2022-10-16T16:15:17;19.50;;;8.55;;
61407;SDS011;47274;43.054;25.146;2022-10-16T16:17:50;22.02;;;9.55;;
61407;SDS011;47274;43.054;25.146;2022-10-16T16:20:15;19.02;;;9.93;;
61407;SDS011;47274;43.054;25.146;2022-10-16T16:22:42;22.83;;;11.90;;
61407;SDS011;47274;43.054;25.146;2022-10-16T16:25:08;19.98;;;8.75;;
61407;SDS011;47274;43.054;25.146;2022-10-16T16:27:36;18.05;;;8.55;;
61407;SDS011;47274;43.054;25.146;2022-10-16T16:30:04;17.20;;;7.47;;
61407;SDS011;47274;43.054;25.146;2022-10-16T16:32:33;18.67;;;8.00;;
61407;SDS011;47274;43.054;25.146;2022-10-16T16:35:00;16.08;;;7.53;;
61407;SDS011;47274;43.054;25.146;2022-10-16T16:37:27;19.60;;;8.85;;
61407;SDS011;47274;43.054;25.146;2022-10-16T16:39:54;18.25;;;8.32;;
61407;SDS011;47274;43.054;25.146;2022-10-16T16:42:26;19.55;;;8.30;;
61407;SDS011;47274;43.054;25.146;2022-10-16T16:44:53;19.25;;;8.73;;
61407;SDS011;47274;43.054;25.146;2022-10-16T16:47:21;21.25;;;9.30;;
61407;SDS011;47274;43.054;25.146;2022-10-16T16:49:47;22.17;;;9.73;;
61407;SDS011;47274;43.054;25.146;2022-10-16T16:52:14;18.52;;;8.52;;
61407;SDS011;47274;43.054;25.146;2022-10-16T16:54:41;23.30;;;10.13;;